createdAt,value
2018-07-04T00:00:00.695Z,34.5
2018-07-04T00:01:08.847Z,34.6
2018-07-04T00:02:15.295Z,34.8
2018-07-04T00:03:14.774Z,34.8
2018-07-04T00:04:15.190Z,34.9
2018-07-04T00:05:13.847Z,35
2018-07-04T00:06:09.197Z,35
2018-07-04T00:07:12.511Z,35.2
2018-07-04T00:08:21.319Z,35.2
2018-07-04T00:09:35.517Z,35.3
2018-07-04T00:10:32.601Z,35.3
2018-07-04T00:11:30.586Z,35.4
2018-07-04T00:12:37.211Z,35.5
2018-07-04T00:13:33.519Z,35.6
2018-07-04T00:14:33.749Z,35.8
2018-07-04T00:15:30.203Z,35.7
2018-07-04T00:16:28.273Z,35.8
2018-07-04T00:17:30.523Z,35.8
2018-07-04T00:18:28.332Z,35.9
2018-07-04T00:19:27.407Z,36
2018-07-04T00:20:45.859Z,36.1
2018-07-04T00:21:43.294Z,36.1
2018-07-04T00:22:38.811Z,36.2
2018-07-04T00:23:42.079Z,36.3
2018-07-04T00:24:42.059Z,36.3
2018-07-04T00:25:47.643Z,36.3
2018-07-04T00:26:54.613Z,36.3
2018-07-04T00:27:49.870Z,36.4
2018-07-04T00:28:47.819Z,36.4
2018-07-04T00:29:52.110Z,36.3
2018-07-04T00:30:49.676Z,36.4
2018-07-04T00:31:54.078Z,36.4
2018-07-04T00:32:51.702Z,36.4
2018-07-04T00:34:05.198Z,36.4
2018-07-04T00:35:03.840Z,36.4
2018-07-04T00:36:00.294Z,36.4
2018-07-04T00:37:02.693Z,36.5
2018-07-04T00:37:59.261Z,36.5
2018-07-04T00:39:13.519Z,36.5
2018-07-04T00:40:13.224Z,36.6
2018-07-04T00:41:14.907Z,36.7
2018-07-04T00:42:10.399Z,36.8
2018-07-04T00:43:09.967Z,37.2
2018-07-04T00:44:11.727Z,36.9
2018-07-04T00:45:10.595Z,36.9
2018-07-04T00:46:11.345Z,37
2018-07-04T00:47:07.480Z,37
2018-07-04T00:48:07.627Z,37
2018-07-04T00:49:07.328Z,37.1
2018-07-04T00:50:14.965Z,37.2
2018-07-04T00:51:11.264Z,37.3
2018-07-04T00:52:30.971Z,37.2
2018-07-04T00:53:28.272Z,37.3
2018-07-04T00:54:22.725Z,37.3
2018-07-04T00:55:20.383Z,37.2
2018-07-04T00:56:22.603Z,37.2
2018-07-04T00:57:30.604Z,37.2
2018-07-04T00:58:29.756Z,37.4
2018-07-04T00:59:32.876Z,37.5
2018-07-04T01:00:31.474Z,37.5
2018-07-04T01:01:35.323Z,37.6
2018-07-04T01:02:32.963Z,37.6
2018-07-04T01:03:33.256Z,37.7
2018-07-04T01:04:27.907Z,37.7
2018-07-04T01:05:32.145Z,37.7
2018-07-04T01:06:28.597Z,37.9
2018-07-04T01:07:29.011Z,38.1
2018-07-04T01:08:41.291Z,38.2
2018-07-04T01:09:35.422Z,38.1
2018-07-04T01:10:36.782Z,38
2018-07-04T01:11:38.038Z,38
2018-07-04T01:12:35.501Z,38.1
2018-07-04T01:13:34.136Z,38.2
2018-07-04T01:14:35.058Z,38.2
2018-07-04T01:15:36.467Z,38.1
2018-07-04T01:16:30.973Z,38.1
2018-07-04T01:17:33.134Z,38.2
2018-07-04T01:18:34.063Z,38.2
2018-07-04T01:19:29.558Z,38.2
2018-07-04T01:20:30.334Z,38.3
2018-07-04T01:21:35.999Z,38.2
2018-07-04T01:22:37.573Z,38.3
2018-07-04T01:23:35.232Z,38.4
2018-07-04T01:24:33.103Z,38.3
2018-07-04T01:25:33.455Z,38.3
2018-07-04T01:26:32.897Z,38.3
2018-07-04T01:27:32.592Z,38.4
2018-07-04T01:28:37.794Z,38.4
2018-07-04T01:29:35.972Z,38.4
2018-07-04T01:30:35.350Z,38.5
2018-07-04T01:31:36.475Z,38.6
2018-07-04T01:32:33.971Z,38.6
2018-07-04T01:33:33.255Z,38.6
2018-07-04T01:34:49.259Z,38.6
2018-07-04T01:35:49.020Z,38.6
2018-07-04T01:36:47.987Z,38.6
2018-07-04T01:37:48.325Z,38.7
2018-07-04T01:38:49.052Z,38.8
2018-07-04T01:39:50.978Z,38.8
2018-07-04T01:40:52.483Z,38.8
2018-07-04T01:41:50.978Z,38.8
2018-07-04T01:42:53.041Z,39
2018-07-04T01:43:58.086Z,39
2018-07-04T01:44:59.154Z,39
2018-07-04T01:46:07.566Z,39.2
2018-07-04T01:47:02.213Z,39.2
2018-07-04T01:48:18.028Z,39.2
2018-07-04T01:49:12.490Z,39.2
2018-07-04T01:50:22.817Z,39.3
2018-07-04T01:51:20.756Z,39.4
2018-07-04T01:52:32.038Z,39.4
2018-07-04T01:53:28.274Z,39.4
2018-07-04T01:54:28.697Z,39.5
2018-07-04T01:55:25.411Z,39.4
2018-07-04T01:56:25.214Z,39.4
2018-07-04T01:57:23.824Z,39.5
2018-07-04T01:58:28.457Z,39.4
2018-07-04T01:59:24.812Z,39.6
2018-07-04T02:00:22.587Z,39.5
2018-07-04T02:01:20.757Z,39.5
2018-07-04T02:02:18.448Z,39.5
2018-07-04T02:03:17.857Z,39.5
2018-07-04T02:04:16.041Z,39.5
2018-07-04T02:05:25.550Z,39.5
2018-07-04T02:06:23.034Z,39.5
2018-07-04T02:07:24.234Z,39.5
2018-07-04T02:08:22.600Z,39.5
2018-07-04T02:09:21.313Z,39.5
2018-07-04T02:10:17.504Z,39.6
2018-07-04T02:11:18.708Z,39.6
2018-07-04T02:12:16.598Z,39.7
2018-07-04T02:13:18.139Z,39.5
2018-07-04T02:14:22.180Z,39.8
2018-07-04T02:15:31.184Z,39.7
2018-07-04T02:16:26.338Z,39.8
2018-07-04T02:17:41.860Z,39.8
2018-07-04T02:18:35.600Z,40
2018-07-04T02:19:36.149Z,40
2018-07-04T02:20:37.905Z,40
2018-07-04T02:21:52.973Z,39.9
2018-07-04T02:22:51.377Z,40
2018-07-04T02:23:52.015Z,40
2018-07-04T02:24:49.165Z,39.9
2018-07-04T02:25:49.842Z,39.9
2018-07-04T02:26:50.677Z,40
2018-07-04T02:27:47.891Z,40
2018-07-04T02:29:02.967Z,40
2018-07-04T02:29:58.028Z,40
2018-07-04T02:31:00.510Z,39.9
2018-07-04T02:31:58.977Z,39.9
2018-07-04T02:32:57.099Z,39.9
2018-07-04T02:33:54.654Z,39.9
2018-07-04T02:34:55.501Z,39.9
2018-07-04T02:35:53.413Z,40
2018-07-04T02:37:00.434Z,40
2018-07-04T02:38:00.532Z,40
2018-07-04T02:39:08.507Z,40
2018-07-04T02:40:03.807Z,40
2018-07-04T02:41:14.210Z,40
2018-07-04T02:42:11.836Z,40
2018-07-04T02:43:08.234Z,40.3
2018-07-04T02:44:05.990Z,40
2018-07-04T02:45:08.378Z,40
2018-07-04T02:46:06.925Z,40
2018-07-04T02:47:08.040Z,40
2018-07-04T02:48:15.381Z,40
2018-07-04T02:49:11.540Z,40
2018-07-04T02:50:11.058Z,40
2018-07-04T02:51:16.282Z,40
2018-07-04T02:52:12.650Z,40
2018-07-04T02:53:13.134Z,40
2018-07-04T02:54:11.397Z,40.1
2018-07-04T02:55:15.720Z,40.1
2018-07-04T02:56:15.887Z,40.1
2018-07-04T02:57:34.278Z,40.1
2018-07-04T02:58:29.312Z,41
2018-07-04T02:59:27.233Z,40.1
2018-07-04T03:00:27.893Z,40.2
2018-07-04T03:01:26.807Z,40.1
2018-07-04T03:02:26.094Z,40.1
2018-07-04T03:03:26.094Z,40.1
2018-07-04T03:04:24.831Z,40.1
2018-07-04T03:05:23.546Z,40.1
2018-07-04T03:06:25.146Z,40.1
2018-07-04T03:07:20.379Z,40.2
2018-07-04T03:08:33.659Z,40.2
2018-07-04T03:09:25.657Z,40.3
2018-07-04T03:10:27.518Z,40.4
2018-07-04T03:11:27.150Z,40.5
2018-07-04T03:12:27.569Z,40.3
2018-07-04T03:13:27.383Z,41
2018-07-04T03:14:27.691Z,40.3
2018-07-04T03:15:24.675Z,40.2
2018-07-04T03:16:23.888Z,40.3
2018-07-04T03:17:30.261Z,40.3
2018-07-04T03:18:40.768Z,40.3
2018-07-04T03:19:35.031Z,40.1
2018-07-04T03:20:36.420Z,40.3
2018-07-04T03:21:35.027Z,40.2
2018-07-04T03:22:33.697Z,40.1
2018-07-04T03:23:35.001Z,40.2
2018-07-04T03:24:29.423Z,40.3
2018-07-04T03:25:30.138Z,40.3
2018-07-04T03:26:28.103Z,40.6
2018-07-04T03:27:27.082Z,40.5
2018-07-04T03:28:25.002Z,41
2018-07-04T03:29:22.582Z,40.5
2018-07-04T03:30:23.895Z,40.6
2018-07-04T03:31:21.126Z,40.6
2018-07-04T03:32:18.375Z,40.7
2018-07-04T03:33:18.859Z,40.7
2018-07-04T03:34:28.172Z,40.7
2018-07-04T03:35:22.217Z,40.8
2018-07-04T03:36:23.559Z,40.9
2018-07-04T03:37:21.438Z,40.8
2018-07-04T03:38:16.674Z,40.9
2018-07-04T03:39:26.175Z,40.9
2018-07-04T03:40:30.263Z,41
2018-07-04T03:41:30.701Z,41
2018-07-04T03:42:29.599Z,41
2018-07-04T03:43:32.386Z,41
2018-07-04T03:44:31.968Z,41.1
2018-07-04T03:45:28.699Z,41.1
2018-07-04T03:46:30.968Z,41.1
2018-07-04T03:47:26.333Z,41.2
2018-07-04T03:48:24.076Z,41.3
2018-07-04T03:49:23.854Z,41.2
2018-07-04T03:50:24.218Z,41.2
2018-07-04T03:51:46.643Z,41.3
2018-07-04T03:52:41.555Z,41.3
2018-07-04T03:53:37.018Z,41.4
2018-07-04T03:54:41.705Z,41.4
2018-07-04T03:55:39.135Z,41.4
2018-07-04T03:56:37.032Z,41.4
2018-07-04T03:57:35.619Z,41.4
2018-07-04T03:58:38.447Z,41.3
2018-07-04T03:59:35.777Z,41.6
2018-07-04T04:00:31.390Z,41.6
2018-07-04T04:01:31.312Z,41.6
2018-07-04T04:02:32.282Z,41.6
2018-07-04T04:03:30.815Z,41.6
2018-07-04T04:04:40.548Z,41.7
2018-07-04T04:05:42.055Z,41.7
2018-07-04T04:06:39.628Z,41.7
2018-07-04T04:07:38.714Z,41.7
2018-07-04T04:08:42.194Z,41.7
2018-07-04T04:09:41.880Z,41.7
2018-07-04T04:10:51.627Z,41.7
2018-07-04T04:11:52.877Z,41.7
2018-07-04T04:13:00.062Z,41.7
2018-07-04T04:14:00.381Z,41.8
2018-07-04T04:14:54.879Z,41.8
2018-07-04T04:16:04.701Z,41.8
2018-07-04T04:17:02.068Z,41.8
2018-07-04T04:17:59.830Z,41.8
2018-07-04T04:18:59.995Z,41.9
2018-07-04T04:20:01.693Z,41.9
2018-07-04T04:20:56.514Z,42
2018-07-04T04:22:00.453Z,41.9
2018-07-04T04:22:57.992Z,42
2018-07-04T04:23:57.186Z,41.9
2018-07-04T04:24:54.703Z,42
2018-07-04T04:25:54.466Z,42
2018-07-04T04:26:56.789Z,42
2018-07-04T04:27:58.973Z,42
2018-07-04T04:29:03.940Z,42.1
2018-07-04T04:30:04.734Z,42.1
2018-07-04T04:31:06.195Z,42.1
2018-07-04T04:32:07.735Z,42.1
2018-07-04T04:33:10.191Z,42.1
2018-07-04T04:34:05.401Z,42.1
2018-07-04T04:35:18.717Z,42.1
2018-07-04T04:36:13.930Z,42.2
2018-07-04T04:37:12.842Z,42.1
2018-07-04T04:38:14.638Z,42.2
2018-07-04T04:39:10.349Z,42.2
2018-07-04T04:40:07.830Z,42.2
2018-07-04T04:41:09.145Z,42.2
2018-07-04T04:42:13.270Z,42.3
2018-07-04T04:43:14.543Z,42.3
2018-07-04T04:44:10.531Z,42.3
2018-07-04T04:45:24.721Z,42.2
2018-07-04T04:46:24.301Z,42.3
2018-07-04T04:47:20.764Z,42.3
2018-07-04T04:48:19.949Z,42.4
2018-07-04T04:49:28.759Z,42.4
2018-07-04T04:50:27.011Z,42.5
2018-07-04T04:51:24.842Z,42.4
2018-07-04T04:52:20.544Z,42.3
2018-07-04T04:53:25.355Z,42.4
2018-07-04T04:54:29.642Z,42.6
2018-07-04T04:55:38.260Z,42.5
2018-07-04T04:56:33.348Z,42.4
2018-07-04T04:57:34.238Z,42.4
2018-07-04T04:58:35.794Z,42.5
2018-07-04T04:59:31.492Z,42.6
2018-07-04T05:00:43.835Z,42.5
2018-07-04T05:01:38.360Z,42.7
2018-07-04T05:02:39.974Z,42.6
2018-07-04T05:03:43.733Z,42.6
2018-07-04T05:04:38.518Z,42.7
2018-07-04T05:05:46.542Z,42.6
2018-07-04T05:06:49.634Z,42.6
2018-07-04T05:07:50.110Z,42.6
2018-07-04T05:08:51.837Z,42.7
2018-07-04T05:09:52.197Z,42.8
2018-07-04T05:10:49.960Z,42.7
2018-07-04T05:11:45.585Z,42.7
2018-07-04T05:12:48.774Z,42.7
2018-07-04T05:13:59.469Z,42.8
2018-07-04T05:15:09.671Z,42.8
2018-07-04T05:16:08.209Z,42.8
2018-07-04T05:17:03.474Z,42.8
2018-07-04T05:18:01.383Z,42.8
2018-07-04T05:19:00.428Z,42.8
2018-07-04T05:20:01.116Z,42.8
2018-07-04T05:21:04.777Z,42.8
2018-07-04T05:22:02.358Z,42.8
2018-07-04T05:23:07.855Z,42.8
2018-07-04T05:24:10.678Z,42.8
2018-07-04T05:25:07.278Z,42.8
2018-07-04T05:26:09.543Z,42.9
2018-07-04T05:27:12.462Z,42.9
2018-07-04T05:28:18.083Z,42.9
2018-07-04T05:29:20.250Z,42.9
2018-07-04T05:30:31.829Z,43
2018-07-04T05:31:27.694Z,43.1
2018-07-04T05:32:25.909Z,43
2018-07-04T05:33:25.979Z,43
2018-07-04T05:34:26.044Z,43
2018-07-04T05:35:26.793Z,43
2018-07-04T05:36:24.604Z,43
2018-07-04T05:37:24.714Z,43.2
2018-07-04T05:38:25.717Z,43.2
2018-07-04T05:39:27.001Z,43.3
2018-07-04T05:40:34.921Z,43.2
2018-07-04T05:41:27.318Z,43.2
2018-07-04T05:42:26.139Z,43.2
2018-07-04T05:43:30.089Z,43.2
2018-07-04T05:44:28.066Z,43.1
2018-07-04T05:45:37.936Z,43.1
2018-07-04T05:46:40.414Z,43.2
2018-07-04T05:47:41.953Z,43.2
2018-07-04T05:48:48.812Z,43.2
2018-07-04T05:49:52.772Z,43.2
2018-07-04T05:50:51.000Z,43.3
2018-07-04T05:51:58.680Z,43.2
2018-07-04T05:52:59.807Z,43.4
2018-07-04T05:53:59.068Z,43.4
2018-07-04T05:55:02.600Z,43.3
2018-07-04T05:55:57.476Z,43.3
2018-07-04T05:57:13.850Z,43.3
2018-07-04T05:58:07.124Z,43.3
2018-07-04T05:59:08.299Z,43.7
2018-07-04T06:00:10.433Z,44.1
2018-07-04T06:01:15.911Z,44.4
2018-07-04T06:02:14.703Z,44.5
2018-07-04T06:03:17.413Z,44.8
2018-07-04T06:04:13.053Z,44.9
2018-07-04T06:05:16.413Z,44.9
2018-07-04T06:06:11.577Z,45
2018-07-04T06:07:09.385Z,44.8
2018-07-04T06:08:21.691Z,44.7
2018-07-04T06:09:19.686Z,44.6
2018-07-04T06:10:24.059Z,44.4
2018-07-04T06:11:19.273Z,44.7
2018-07-04T06:12:25.892Z,44.9
2018-07-04T06:13:24.940Z,44.9
2018-07-04T06:14:27.346Z,44.9
2018-07-04T06:15:30.329Z,44.7
2018-07-04T06:16:28.060Z,44.6
2018-07-04T06:17:25.303Z,44.6
2018-07-04T06:18:24.965Z,44.5
2018-07-04T06:19:26.042Z,44.5
2018-07-04T06:20:24.943Z,44.5
2018-07-04T06:21:22.579Z,44.4
2018-07-04T06:22:32.558Z,44.3
2018-07-04T06:23:30.140Z,44.2
2018-07-04T06:24:28.770Z,44.2
2018-07-04T06:25:27.303Z,43.9
2018-07-04T06:26:28.379Z,43.8
2018-07-04T06:27:32.713Z,43.7
2018-07-04T06:28:30.619Z,43.6
2018-07-04T06:29:28.441Z,43.5
2018-07-04T06:30:51.479Z,43.5
2018-07-04T06:31:47.190Z,43.4
2018-07-04T06:32:44.252Z,43.3
2018-07-04T06:33:49.754Z,43.4
2018-07-04T06:34:52.984Z,43.3
2018-07-04T06:35:55.106Z,43.3
2018-07-04T06:36:50.359Z,43.3
2018-07-04T06:37:50.613Z,43.3
2018-07-04T06:38:48.392Z,43.2
2018-07-04T06:39:43.136Z,43.2
2018-07-04T06:41:07.066Z,43.2
2018-07-04T06:42:03.315Z,43.1
2018-07-04T06:43:03.591Z,43
2018-07-04T06:43:58.892Z,43
2018-07-04T06:45:02.531Z,42.9
2018-07-04T06:46:07.046Z,42.9
2018-07-04T06:47:05.645Z,42.9
2018-07-04T06:48:02.672Z,42.8
2018-07-04T06:49:08.204Z,42.9
2018-07-04T06:50:06.931Z,42.8
2018-07-04T06:51:01.358Z,42.8
2018-07-04T06:51:59.044Z,42.8
2018-07-04T06:52:56.942Z,42.7
2018-07-04T06:53:56.788Z,42.7
2018-07-04T06:54:55.691Z,42.6
2018-07-04T06:56:16.259Z,42.6
2018-07-04T06:57:12.763Z,42.6
2018-07-04T06:58:07.824Z,42.6
2018-07-04T06:59:07.841Z,42.5
2018-07-04T07:00:07.775Z,42.5
2018-07-04T07:01:09.395Z,42.5
2018-07-04T07:02:05.704Z,42.5
2018-07-04T07:03:16.002Z,42.5
2018-07-04T07:04:20.441Z,42.5
2018-07-04T07:05:21.673Z,42.5
2018-07-04T07:06:21.644Z,42.4
2018-07-04T07:07:25.564Z,42.4
2018-07-04T07:08:29.649Z,42.4
2018-07-04T07:09:41.784Z,42.4
2018-07-04T07:10:37.346Z,42.4
2018-07-04T07:11:35.999Z,42.4
2018-07-04T07:12:44.761Z,42.4
2018-07-04T07:13:59.466Z,42.4
2018-07-04T07:15:01.230Z,42.3
2018-07-04T07:15:56.999Z,42.5
2018-07-04T07:16:54.744Z,42.6
2018-07-04T07:17:59.905Z,42.4
2018-07-04T07:18:59.045Z,42.6
2018-07-04T07:19:59.989Z,42.8
2018-07-04T07:20:59.629Z,43
2018-07-04T07:21:58.280Z,42.8
2018-07-04T07:23:02.007Z,42.7
2018-07-04T07:24:00.204Z,42.7
2018-07-04T07:25:00.227Z,42.6
2018-07-04T07:25:59.181Z,42.5
2018-07-04T07:27:12.213Z,42.4
2018-07-04T07:28:11.741Z,42.3
2018-07-04T07:29:07.267Z,42.2
2018-07-04T07:30:23.249Z,42.1
2018-07-04T07:31:21.663Z,42.1
2018-07-04T07:32:16.928Z,42
2018-07-04T07:33:18.012Z,42
2018-07-04T07:34:16.322Z,42
2018-07-04T07:35:13.740Z,42
2018-07-04T07:36:08.530Z,42
2018-07-04T07:37:07.705Z,42
2018-07-04T07:38:23.400Z,42
2018-07-04T07:39:39.152Z,41.9
2018-07-04T07:40:38.330Z,41.9
2018-07-04T07:41:39.560Z,41.9
2018-07-04T07:42:34.151Z,41.8
2018-07-04T07:43:35.422Z,41.7
2018-07-04T07:44:30.459Z,41.8
2018-07-04T07:45:42.511Z,41.8
2018-07-04T07:46:40.269Z,41.7
2018-07-04T07:47:39.085Z,41.7
2018-07-04T07:48:38.813Z,41.7
2018-07-04T07:49:52.743Z,41.6
2018-07-04T07:50:49.967Z,41.6
2018-07-04T07:52:01.235Z,41.7
2018-07-04T07:52:54.674Z,41.7
2018-07-04T07:53:56.898Z,41.8
2018-07-04T07:54:57.738Z,41.8
2018-07-04T07:56:00.135Z,41.9
2018-07-04T07:57:02.141Z,41.8
2018-07-04T07:57:59.662Z,41.7
2018-07-04T07:58:59.366Z,41.6
2018-07-04T07:59:58.992Z,41.7
2018-07-04T08:01:02.452Z,41.6
2018-07-04T08:02:00.958Z,41.5
2018-07-04T08:02:58.478Z,41.5
2018-07-04T08:04:01.461Z,41.5
2018-07-04T08:05:15.711Z,41.4
2018-07-04T08:06:13.435Z,41.3
2018-07-04T08:07:12.962Z,41.3
2018-07-04T08:08:22.074Z,41.2
2018-07-04T08:09:32.916Z,41.2
2018-07-04T08:10:35.033Z,41.1
2018-07-04T08:11:33.606Z,41.1
2018-07-04T08:12:29.903Z,41.1
2018-07-04T08:13:35.896Z,41
2018-07-04T08:14:31.857Z,41
2018-07-04T08:15:36.318Z,41
2018-07-04T08:16:35.137Z,40.9
2018-07-04T08:17:38.996Z,40.9
2018-07-04T08:18:41.556Z,40.9
2018-07-04T08:19:46.174Z,41.3
2018-07-04T08:21:04.211Z,41.2
2018-07-04T08:21:56.270Z,41.2
2018-07-04T08:23:01.734Z,41.2
2018-07-04T08:23:57.194Z,41.1
2018-07-04T08:24:56.048Z,41.1
2018-07-04T08:25:56.669Z,41
2018-07-04T08:26:57.286Z,41
2018-07-04T08:27:56.830Z,41
2018-07-04T08:28:59.954Z,40.8
2018-07-04T08:30:03.660Z,41
2018-07-04T08:31:04.142Z,40.9
2018-07-04T08:32:06.314Z,40.9
2018-07-04T08:33:01.212Z,40.8
2018-07-04T08:34:03.074Z,40.8
2018-07-04T08:35:01.303Z,40.7
2018-07-04T08:36:09.411Z,40.7
2018-07-04T08:37:21.121Z,40.7
2018-07-04T08:38:20.258Z,40.6
2018-07-04T08:39:17.378Z,40.6
2018-07-04T08:40:18.539Z,40.6
2018-07-04T08:41:27.139Z,40.5
2018-07-04T08:42:24.921Z,40.5
2018-07-04T08:43:27.650Z,40.4
2018-07-04T08:44:30.688Z,40.4
2018-07-04T08:45:26.109Z,40.4
2018-07-04T08:46:28.319Z,40.4
2018-07-04T08:47:26.466Z,40.3
2018-07-04T08:48:26.142Z,40.3
2018-07-04T08:49:32.494Z,40.3
2018-07-04T08:50:32.559Z,40.2
2018-07-04T08:51:30.816Z,40.2
2018-07-04T08:52:34.519Z,40.2
2018-07-04T08:53:48.354Z,40.1
2018-07-04T08:54:44.622Z,40
2018-07-04T08:55:49.283Z,40
2018-07-04T08:56:48.690Z,40
2018-07-04T08:57:45.975Z,40
2018-07-04T08:58:50.143Z,40
2018-07-04T08:59:56.496Z,39.9
2018-07-04T09:00:51.301Z,39.8
2018-07-04T09:01:58.118Z,39.8
2018-07-04T09:02:56.952Z,39.8
2018-07-04T09:04:09.664Z,39.8
2018-07-04T09:05:06.217Z,39.7
2018-07-04T09:06:11.563Z,39.7
2018-07-04T09:07:10.168Z,39.7
2018-07-04T09:08:06.471Z,39.7
2018-07-04T09:09:06.589Z,39.6
2018-07-04T09:10:07.400Z,39.5
2018-07-04T09:11:08.583Z,39.5
2018-07-04T09:12:10.566Z,39.5
2018-07-04T09:13:09.453Z,39.5
2018-07-04T09:14:14.965Z,39.5
2018-07-04T09:15:15.368Z,39.4
2018-07-04T09:16:19.608Z,39.4
2018-07-04T09:17:18.373Z,39.3
2018-07-04T09:18:18.115Z,39.3
2018-07-04T09:19:21.247Z,39.3
2018-07-04T09:20:37.929Z,39.2
2018-07-04T09:21:34.309Z,39.1
2018-07-04T09:22:32.050Z,39
2018-07-04T09:23:33.372Z,39
2018-07-04T09:24:33.533Z,39
2018-07-04T09:25:32.271Z,39
2018-07-04T09:26:33.477Z,39
2018-07-04T09:27:32.123Z,39
2018-07-04T09:28:27.585Z,39
2018-07-04T09:29:27.813Z,39
2018-07-04T09:30:27.941Z,39
2018-07-04T09:31:42.261Z,39
2018-07-04T09:32:41.071Z,39
2018-07-04T09:33:40.051Z,39
2018-07-04T09:34:38.825Z,39
2018-07-04T09:35:39.536Z,39
2018-07-04T09:36:37.465Z,39
2018-07-04T09:37:35.136Z,39
2018-07-04T09:38:30.654Z,39
2018-07-04T09:39:32.220Z,39
2018-07-04T09:40:28.597Z,39
2018-07-04T09:41:35.682Z,39
2018-07-04T09:42:28.349Z,39
2018-07-04T09:43:27.203Z,39
2018-07-04T09:44:28.989Z,39
2018-07-04T09:45:28.362Z,39
2018-07-04T09:46:32.502Z,38.9
2018-07-04T09:47:29.673Z,38.9
2018-07-04T09:48:27.575Z,38.9
2018-07-04T09:49:39.972Z,38.9
2018-07-04T09:50:36.914Z,39
2018-07-04T09:51:34.519Z,38.9
2018-07-04T09:52:33.223Z,38.9
2018-07-04T09:53:35.608Z,38.9
2018-07-04T09:54:34.313Z,38.9
2018-07-04T09:55:36.702Z,38.9
2018-07-04T09:56:35.285Z,38.9
2018-07-04T09:57:35.032Z,38.9
2018-07-04T09:58:35.712Z,38.9
2018-07-04T09:59:32.384Z,38.9
2018-07-04T10:00:35.990Z,38.9
2018-07-04T10:01:35.599Z,38.9
2018-07-04T10:02:47.222Z,38.9
2018-07-04T10:03:41.876Z,38.9
2018-07-04T10:04:45.159Z,38.9
2018-07-04T10:05:49.699Z,38.9
2018-07-04T10:06:53.018Z,38.9
2018-07-04T10:07:50.819Z,38.9
2018-07-04T10:08:49.393Z,38.9
2018-07-04T10:09:55.840Z,38.9
2018-07-04T10:10:54.882Z,38.9
2018-07-04T10:11:52.417Z,38.9
2018-07-04T10:12:51.067Z,38.9
2018-07-04T10:13:49.407Z,38.7
2018-07-04T10:14:52.077Z,38.9
2018-07-04T10:16:05.604Z,38.9
2018-07-04T10:17:11.348Z,38.9
2018-07-04T10:18:23.281Z,38.9
2018-07-04T10:19:17.716Z,38.9
2018-07-04T10:20:15.785Z,38.9
2018-07-04T10:21:14.552Z,38.9
2018-07-04T10:22:17.039Z,38.9
2018-07-04T10:23:20.861Z,38.9
2018-07-04T10:24:17.324Z,38.9
2018-07-04T10:25:15.373Z,38.9
2018-07-04T10:26:17.350Z,38.9
2018-07-04T10:27:12.764Z,38.9
2018-07-04T10:28:10.463Z,38.9
2018-07-04T10:29:11.414Z,38.6
2018-07-04T10:30:14.843Z,38.9
2018-07-04T10:31:17.438Z,38.9
2018-07-04T10:32:17.842Z,38.9
2018-07-04T10:33:29.471Z,38.9
2018-07-04T10:34:22.550Z,38.9
2018-07-04T10:35:23.690Z,38.8
2018-07-04T10:36:19.058Z,38.8
2018-07-04T10:37:22.817Z,38.8
2018-07-04T10:38:20.666Z,38.8
2018-07-04T10:39:24.606Z,38.8
2018-07-04T10:40:21.156Z,38.8
2018-07-04T10:41:22.371Z,38.7
2018-07-04T10:42:29.459Z,38.7
2018-07-04T10:43:27.185Z,38.7
2018-07-04T10:44:25.987Z,38.7
2018-07-04T10:45:51.502Z,38.7
2018-07-04T10:46:39.244Z,38.5
2018-07-04T10:47:33.924Z,38.6
2018-07-04T10:48:32.384Z,38.6
2018-07-04T10:49:34.460Z,38.4
2018-07-04T10:50:37.037Z,38.4
2018-07-04T10:51:35.811Z,38.4
2018-07-04T10:52:31.481Z,38.3
2018-07-04T10:53:29.844Z,38.3
2018-07-04T10:54:31.534Z,38.3
2018-07-04T10:55:28.686Z,38.3
2018-07-04T10:56:26.617Z,38.3
2018-07-04T10:57:40.591Z,38.3
2018-07-04T10:58:32.792Z,38.3
2018-07-04T10:59:50.555Z,38.3
2018-07-04T11:00:53.417Z,38.3
2018-07-04T11:01:57.405Z,38.3
2018-07-04T11:02:55.379Z,38.2
2018-07-04T11:03:57.803Z,38.7
2018-07-04T11:04:54.924Z,38.7
2018-07-04T11:05:54.951Z,38.7
2018-07-04T11:06:56.405Z,38.7
2018-07-04T11:07:55.090Z,38.7
2018-07-04T11:08:49.865Z,38.7
2018-07-04T11:10:01.486Z,38.8
2018-07-04T11:10:57.921Z,38.8
2018-07-04T11:11:55.958Z,38.8
2018-07-04T11:12:54.639Z,38.8
2018-07-04T11:13:53.485Z,38.6
2018-07-04T11:14:50.147Z,38.8
2018-07-04T11:15:51.007Z,38.9
2018-07-04T11:16:53.432Z,38.8
2018-07-04T11:17:50.545Z,38.9
2018-07-04T11:18:51.240Z,38.9
2018-07-04T11:19:49.750Z,38.9
2018-07-04T11:20:53.728Z,38.9
2018-07-04T11:22:10.097Z,38.9
2018-07-04T11:23:08.129Z,38.9
2018-07-04T11:24:03.551Z,38.9
2018-07-04T11:25:04.082Z,38.9
2018-07-04T11:26:01.832Z,38.9
2018-07-04T11:27:01.163Z,38.9
2018-07-04T11:28:00.142Z,38.9
2018-07-04T11:28:59.740Z,38.6
2018-07-04T11:30:00.326Z,38.9
2018-07-04T11:30:58.858Z,38.9
2018-07-04T11:32:07.442Z,38.9
2018-07-04T11:33:05.261Z,38.9
2018-07-04T11:34:04.906Z,38.9
2018-07-04T11:35:02.680Z,38.9
2018-07-04T11:36:17.441Z,38.8
2018-07-04T11:37:15.002Z,38.8
2018-07-04T11:38:17.417Z,38.7
2018-07-04T11:39:12.706Z,38.7
2018-07-04T11:40:10.239Z,38.8
2018-07-04T11:41:11.233Z,38.8
2018-07-04T11:42:11.611Z,38.8
2018-07-04T11:43:07.813Z,38.8
2018-07-04T11:44:06.742Z,38.5
2018-07-04T11:45:07.850Z,38.8
2018-07-04T11:46:07.060Z,38.7
2018-07-04T11:47:33.037Z,38.7
2018-07-04T11:48:25.278Z,38.6
2018-07-04T11:49:26.401Z,38.5
2018-07-04T11:50:35.509Z,38.5
2018-07-04T11:51:37.676Z,38.5
2018-07-04T11:52:34.068Z,38.7
2018-07-04T11:53:35.749Z,38.7
2018-07-04T11:54:35.655Z,38.7
2018-07-04T11:55:33.527Z,38.5
2018-07-04T11:56:34.614Z,38.4
2018-07-04T11:57:32.061Z,38.3
2018-07-04T11:58:32.861Z,38.3
2018-07-04T11:59:34.913Z,38.3
2018-07-04T12:00:37.014Z,38.3
2018-07-04T12:01:32.628Z,38.3
2018-07-04T12:02:30.435Z,38.2
2018-07-04T12:03:29.123Z,38.2
2018-07-04T12:04:35.151Z,38.2
2018-07-04T12:05:35.375Z,38.1
2018-07-04T12:06:33.627Z,38
2018-07-04T12:07:34.163Z,38
2018-07-04T12:08:55.656Z,37.9
2018-07-04T12:09:58.095Z,37.9
2018-07-04T12:10:57.797Z,37.9
2018-07-04T12:11:54.403Z,37.8
2018-07-04T12:12:52.200Z,37.8
2018-07-04T12:14:04.803Z,37.8
2018-07-04T12:15:05.197Z,37.8
2018-07-04T12:16:04.420Z,37.7
2018-07-04T12:17:05.658Z,37.7
2018-07-04T12:18:07.787Z,37.7
2018-07-04T12:19:07.068Z,37.7
2018-07-04T12:20:06.082Z,37.6
2018-07-04T12:21:10.792Z,37.6
2018-07-04T12:22:34.331Z,37.6
2018-07-04T12:23:27.385Z,37.6
2018-07-04T12:24:29.391Z,37.6
2018-07-04T12:25:29.684Z,37.6
2018-07-04T12:26:32.976Z,37.6
2018-07-04T12:27:35.084Z,37.6
2018-07-04T12:28:35.659Z,37.6
2018-07-04T12:29:37.700Z,37.6
2018-07-04T12:30:35.048Z,37.5
2018-07-04T12:31:35.247Z,37.5
2018-07-04T12:32:32.036Z,37.4
2018-07-04T12:33:42.310Z,37.4
2018-07-04T12:34:36.657Z,37.4
2018-07-04T12:35:37.071Z,37.6
2018-07-04T12:36:34.881Z,37.5
2018-07-04T12:37:33.741Z,37.4
2018-07-04T12:38:31.068Z,37.4
2018-07-04T12:39:32.337Z,37.6
2018-07-04T12:40:30.487Z,37.6
2018-07-04T12:41:35.852Z,37.5
2018-07-04T12:42:34.115Z,37.5
2018-07-04T12:43:42.305Z,37.5
2018-07-04T12:44:37.965Z,37.6
2018-07-04T12:45:41.753Z,37.6
2018-07-04T12:46:54.409Z,37.6
2018-07-04T12:47:48.102Z,37.6
2018-07-04T12:48:50.128Z,37.6
2018-07-04T12:49:50.018Z,37.6
2018-07-04T12:50:48.996Z,38
2018-07-04T12:51:52.327Z,38
2018-07-04T12:52:52.723Z,38.1
2018-07-04T12:53:47.990Z,38
2018-07-04T12:54:45.447Z,38
2018-07-04T12:55:43.157Z,38.5
2018-07-04T12:56:41.075Z,38.5
2018-07-04T12:57:43.105Z,38.5
2018-07-04T12:58:56.569Z,38.5
2018-07-04T12:59:50.088Z,38.5
2018-07-04T13:00:53.322Z,38.5
2018-07-04T13:01:48.483Z,38.5
2018-07-04T13:02:51.681Z,38.5
2018-07-04T13:03:49.462Z,38.4
2018-07-04T13:04:47.295Z,38.5
2018-07-04T13:05:46.500Z,38.5
2018-07-04T13:06:47.551Z,38.5
2018-07-04T13:07:47.898Z,38.5
2018-07-04T13:08:46.565Z,38.5
2018-07-04T13:09:49.516Z,38.5
2018-07-04T13:10:48.363Z,38.5
2018-07-04T13:11:51.727Z,38.5
2018-07-04T13:12:52.097Z,38.5
2018-07-04T13:14:04.361Z,38.5
2018-07-04T13:14:57.577Z,38.5
2018-07-04T13:15:58.558Z,38.5
2018-07-04T13:16:58.479Z,38.4
2018-07-04T13:18:02.043Z,38.4
2018-07-04T13:19:00.027Z,38.4
2018-07-04T13:20:01.206Z,38.4
2018-07-04T13:20:58.956Z,38.4
2018-07-04T13:21:56.848Z,38.5
2018-07-04T13:22:56.730Z,38.5
2018-07-04T13:24:23.283Z,38.5
2018-07-04T13:25:23.232Z,38.5
2018-07-04T13:26:24.783Z,38.5
2018-07-04T13:27:24.711Z,38.5
2018-07-04T13:28:29.149Z,38.5
2018-07-04T13:29:29.533Z,38.7
2018-07-04T13:30:31.094Z,38.5
2018-07-04T13:31:26.805Z,38.8
2018-07-04T13:32:27.349Z,38.5
2018-07-04T13:33:23.936Z,38.4
2018-07-04T13:34:26.210Z,38.4
2018-07-04T13:35:38.047Z,38.5
2018-07-04T13:36:30.065Z,38.8
2018-07-04T13:37:36.380Z,38.5
2018-07-04T13:38:38.196Z,38.5
2018-07-04T13:39:37.057Z,38.5
2018-07-04T13:40:34.303Z,39.2